Terminal Aerodrome Forecast
Issued by NWS Portland, OR

Home | Current Version | Previous Version | Text Only | Print | Product List | Glossary On
Versions: 1 2 3 4 5 6 7 8 9 10 11 12 13 14 15
000
FTUS46 KPQR 270541
TAFEUG
TAF
KEUG 270541Z 2706/2806 24009KT P6SM OVC030
     FM270800 22006KT P6SM OVC030
     FM271000 28004KT P6SM BKN015
     FM271800 35006KT P6SM OVC030
     FM272100 33008KT P6SM FEW250=

USA.gov is the U.S. government's official web portal to all federal, state and local government web resources and services.